WMT3KKR LOWW-LRCL
Flight info
| Callsign | WMT3KKR |
|---|---|
| Flight time | 0h 58m |
| Altitude | 37000 |
| Route | ADAMA Z648 VEDER L140 ALAMU DCT EPARI DCT IZDUW DCT ATSOS |
| Aircraft | A320/M-SDE3FGHIRWY/LB1 |
Departure
| Time | 2026-05-01 09:40 |
|---|---|
| Airport | Vienna International Airport (LOWW) |
Arrival
| Time | 2026-05-01 10:38 |
|---|---|
| Airport | Avram Iancu Cluj International Airport (LRCL) |
| Time | Latitude | Longitude | Altitude | Speed | Heading |
|---|---|---|---|---|---|
| 2026-05-01 09:09 | 48.12052 | 16.55636 | 618 ft | 0 kts | 115° |
| 2026-05-01 09:30 | 48.12063 | 16.55608 | 622 ft | 4 kts | 133° |
| 2026-05-01 09:30 | 48.12108 | 16.55581 | 626 ft | 4 kts | 193° |
| 2026-05-01 09:31 | 48.12121 | 16.55586 | 621 ft | 0 kts | 206° |
| 2026-05-01 09:34 | 48.12082 | 16.55558 | 621 ft | 8 kts | 206° |
| 2026-05-01 09:35 | 48.12013 | 16.55507 | 615 ft | 13 kts | 206° |
| 2026-05-01 09:35 | 48.11842 | 16.55424 | 610 ft | 14 kts | 186° |
| 2026-05-01 09:35 | 48.11778 | 16.55527 | 616 ft | 16 kts | 116° |
| 2026-05-01 09:36 | 48.11727 | 16.55683 | 617 ft | 18 kts | 115° |
| 2026-05-01 09:36 | 48.11670 | 16.55860 | 622 ft | 20 kts | 116° |
| 2026-05-01 09:36 | 48.11605 | 16.56060 | 610 ft | 23 kts | 116° |
| 2026-05-01 09:36 | 48.11532 | 16.56284 | 612 ft | 25 kts | 116° |
| 2026-05-01 09:37 | 48.11452 | 16.56527 | 614 ft | 25 kts | 116° |
| 2026-05-01 09:37 | 48.11294 | 16.57016 | 621 ft | 26 kts | 116° |
| 2026-05-01 09:37 | 48.11211 | 16.57267 | 610 ft | 28 kts | 116° |
| 2026-05-01 09:38 | 48.11110 | 16.57531 | 617 ft | 9 kts | 161° |
| 2026-05-01 09:38 | 48.11058 | 16.57512 | 610 ft | 0 kts | 207° |
| 2026-05-01 09:39 | 48.11012 | 16.57479 | 614 ft | 10 kts | 205° |
| 2026-05-01 09:39 | 48.10966 | 16.57380 | 613 ft | 14 kts | 289° |
| 2026-05-01 09:39 | 48.11001 | 16.57269 | 622 ft | 20 kts | 296° |
| 2026-05-01 09:40 | 48.11186 | 16.56702 | 623 ft | 97 kts | 296° |
| 2026-05-01 09:40 | 48.12043 | 16.54050 | 1235 ft | 160 kts | 292° |
| 2026-05-01 09:40 | 48.12070 | 16.52359 | 1952 ft | 176 kts | 256° |
| 2026-05-01 09:41 | 48.11284 | 16.50806 | 2265 ft | 205 kts | 220° |
| 2026-05-01 09:41 | 48.08641 | 16.48120 | 3177 ft | 255 kts | 212° |
| 2026-05-01 09:41 | 48.06882 | 16.47355 | 3744 ft | 274 kts | 178° |
| 2026-05-01 09:42 | 48.04993 | 16.47715 | 4755 ft | 274 kts | 169° |
| 2026-05-01 09:42 | 48.03093 | 16.48111 | 5774 ft | 277 kts | 169° |
| 2026-05-01 09:42 | 47.99204 | 16.48894 | 7591 ft | 284 kts | 162° |
| 2026-05-01 09:43 | 47.96051 | 16.52098 | 9291 ft | 276 kts | 118° |
| 2026-05-01 09:43 | 47.95283 | 16.54676 | 10166 ft | 270 kts | 98° |
| 2026-05-01 09:43 | 47.95146 | 16.57437 | 10740 ft | 278 kts | 80° |
| 2026-05-01 09:44 | 47.96362 | 16.63278 | 11437 ft | 309 kts | 68° |
| 2026-05-01 09:44 | 47.97082 | 16.66327 | 12139 ft | 313 kts | 68° |
| 2026-05-01 09:44 | 47.97804 | 16.69423 | 12869 ft | 317 kts | 68° |
| 2026-05-01 09:45 | 47.98526 | 16.72554 | 13611 ft | 320 kts | 68° |
| 2026-05-01 09:45 | 47.99738 | 16.79025 | 14991 ft | 330 kts | 80° |
| 2026-05-01 09:45 | 47.99930 | 16.82464 | 15641 ft | 333 kts | 81° |
| 2026-05-01 09:46 | 48.00121 | 16.85929 | 16288 ft | 336 kts | 81° |
| 2026-05-01 09:46 | 48.00318 | 16.89420 | 16903 ft | 338 kts | 81° |
| 2026-05-01 09:46 | 48.00518 | 16.92941 | 17529 ft | 341 kts | 81° |
| 2026-05-01 09:46 | 48.00721 | 16.96491 | 18163 ft | 344 kts | 81° |
| 2026-05-01 09:47 | 48.00925 | 17.00070 | 18786 ft | 347 kts | 81° |
| 2026-05-01 09:47 | 48.01070 | 17.03691 | 19355 ft | 352 kts | 86° |
| 2026-05-01 09:47 | 48.00851 | 17.07362 | 19947 ft | 357 kts | 91° |
| 2026-05-01 09:47 | 48.00567 | 17.11005 | 20542 ft | 358 kts | 91° |
| 2026-05-01 09:48 | 48.00280 | 17.14712 | 21125 ft | 360 kts | 91° |
| 2026-05-01 09:48 | 47.99992 | 17.18485 | 21698 ft | 362 kts | 91° |
| 2026-05-01 09:48 | 47.99710 | 17.22184 | 22267 ft | 364 kts | 91° |
| 2026-05-01 09:48 | 47.99420 | 17.25942 | 22817 ft | 365 kts | 91° |
| 2026-05-01 09:49 | 47.99124 | 17.29726 | 23349 ft | 367 kts | 91° |
| 2026-05-01 09:49 | 47.98789 | 17.33530 | 23875 ft | 372 kts | 95° |
| 2026-05-01 09:49 | 47.98098 | 17.37295 | 24316 ft | 380 kts | 101° |
| 2026-05-01 09:49 | 47.97272 | 17.41057 | 24740 ft | 382 kts | 101° |
| 2026-05-01 09:50 | 47.96439 | 17.44840 | 25181 ft | 384 kts | 101° |
| 2026-05-01 09:50 | 47.95605 | 17.48639 | 25604 ft | 386 kts | 101° |
| 2026-05-01 09:50 | 47.94768 | 17.52461 | 26021 ft | 388 kts | 101° |
| 2026-05-01 09:50 | 47.93925 | 17.56306 | 26420 ft | 390 kts | 101° |
| 2026-05-01 09:51 | 47.93079 | 17.60168 | 26816 ft | 393 kts | 101° |
| 2026-05-01 09:51 | 47.92225 | 17.64045 | 27250 ft | 395 kts | 101° |
| 2026-05-01 09:51 | 47.91363 | 17.67944 | 27670 ft | 396 kts | 101° |
| 2026-05-01 09:51 | 47.90497 | 17.71848 | 28085 ft | 398 kts | 101° |
| 2026-05-01 09:52 | 47.89622 | 17.75775 | 28494 ft | 401 kts | 101° |
| 2026-05-01 09:52 | 47.88752 | 17.79676 | 28886 ft | 403 kts | 101° |
| 2026-05-01 09:52 | 47.87867 | 17.83647 | 29274 ft | 405 kts | 101° |
| 2026-05-01 09:52 | 47.86977 | 17.87638 | 29653 ft | 407 kts | 101° |
| 2026-05-01 09:53 | 47.86081 | 17.91645 | 30025 ft | 409 kts | 101° |
| 2026-05-01 09:53 | 47.85173 | 17.95690 | 30398 ft | 412 kts | 101° |
| 2026-05-01 09:53 | 47.84136 | 17.99701 | 30719 ft | 420 kts | 107° |
| 2026-05-01 09:53 | 47.82904 | 18.03643 | 31196 ft | 419 kts | 107° |
| 2026-05-01 09:54 | 47.81677 | 18.07556 | 31730 ft | 416 kts | 106° |
| 2026-05-01 09:54 | 47.80458 | 18.11449 | 32249 ft | 413 kts | 106° |
| 2026-05-01 09:54 | 47.79247 | 18.15316 | 32759 ft | 411 kts | 106° |
| 2026-05-01 09:54 | 47.78041 | 18.19172 | 33238 ft | 410 kts | 106° |
| 2026-05-01 09:55 | 47.76836 | 18.23011 | 33731 ft | 408 kts | 106° |
| 2026-05-01 09:55 | 47.75635 | 18.26831 | 34229 ft | 407 kts | 106° |
| 2026-05-01 09:55 | 47.74469 | 18.30646 | 34650 ft | 402 kts | 102° |
| 2026-05-01 09:55 | 47.73654 | 18.34573 | 34965 ft | 394 kts | 94° |
| 2026-05-01 09:56 | 47.73266 | 18.38514 | 35248 ft | 390 kts | 89° |
| 2026-05-01 09:56 | 47.72977 | 18.42519 | 35574 ft | 391 kts | 89° |
| 2026-05-01 09:56 | 47.72678 | 18.46542 | 35854 ft | 393 kts | 89° |
| 2026-05-01 09:56 | 47.72373 | 18.50580 | 36092 ft | 395 kts | 89° |
| 2026-05-01 09:57 | 47.72059 | 18.54648 | 36346 ft | 397 kts | 90° |
| 2026-05-01 09:57 | 47.71741 | 18.58730 | 36577 ft | 399 kts | 90° |
| 2026-05-01 09:57 | 47.71418 | 18.62849 | 36814 ft | 401 kts | 90° |
| 2026-05-01 09:57 | 47.71095 | 18.66975 | 37031 ft | 403 kts | 90° |
| 2026-05-01 09:58 | 47.70772 | 18.71117 | 37267 ft | 405 kts | 90° |
| 2026-05-01 09:58 | 47.70446 | 18.75288 | 37361 ft | 408 kts | 90° |
| 2026-05-01 09:58 | 47.69778 | 18.83704 | 37370 ft | 411 kts | 90° |
| 2026-05-01 09:59 | 47.69095 | 18.92133 | 37362 ft | 412 kts | 90° |
| 2026-05-01 09:59 | 47.68518 | 18.99139 | 37362 ft | 412 kts | 91° |
| 2026-05-01 10:00 | 47.67695 | 19.07563 | 37369 ft | 413 kts | 92° |
| 2026-05-01 10:00 | 47.66783 | 19.15985 | 37368 ft | 413 kts | 92° |
| 2026-05-01 10:01 | 47.65866 | 19.24416 | 37400 ft | 413 kts | 92° |
| 2026-05-01 10:01 | 47.64975 | 19.32847 | 37386 ft | 414 kts | 92° |
| 2026-05-01 10:02 | 47.64090 | 19.41287 | 37382 ft | 414 kts | 92° |
| 2026-05-01 10:02 | 47.63191 | 19.49722 | 37379 ft | 415 kts | 92° |
| 2026-05-01 10:03 | 47.62277 | 19.58168 | 37375 ft | 415 kts | 92° |
| 2026-05-01 10:03 | 47.61359 | 19.66610 | 37395 ft | 415 kts | 92° |
| 2026-05-01 10:04 | 47.60450 | 19.74993 | 37381 ft | 415 kts | 92° |
| 2026-05-01 10:04 | 47.59520 | 19.83431 | 37379 ft | 415 kts | 93° |
| 2026-05-01 10:05 | 47.58581 | 19.91873 | 37378 ft | 415 kts | 93° |
| 2026-05-01 10:05 | 47.57634 | 20.00314 | 37379 ft | 415 kts | 93° |
| 2026-05-01 10:06 | 47.56688 | 20.08760 | 37399 ft | 416 kts | 93° |
| 2026-05-01 10:06 | 47.55733 | 20.17213 | 37386 ft | 417 kts | 94° |
| 2026-05-01 10:07 | 47.54764 | 20.25682 | 37382 ft | 417 kts | 94° |
| 2026-05-01 10:07 | 47.53792 | 20.34154 | 37381 ft | 418 kts | 94° |
| 2026-05-01 10:08 | 47.52319 | 20.46871 | 37403 ft | 418 kts | 94° |
| 2026-05-01 10:09 | 47.51325 | 20.55359 | 37389 ft | 419 kts | 94° |
| 2026-05-01 10:09 | 47.50319 | 20.63863 | 37386 ft | 420 kts | 94° |
| 2026-05-01 10:10 | 47.49317 | 20.72372 | 37382 ft | 420 kts | 94° |
| 2026-05-01 10:10 | 47.47795 | 20.85144 | 37382 ft | 421 kts | 94° |
| 2026-05-01 10:11 | 47.46768 | 20.93661 | 37379 ft | 421 kts | 94° |
| 2026-05-01 10:11 | 47.45741 | 21.02181 | 37380 ft | 421 kts | 94° |
| 2026-05-01 10:12 | 47.44712 | 21.10696 | 37383 ft | 421 kts | 94° |
| 2026-05-01 10:13 | 47.43142 | 21.23470 | 37383 ft | 421 kts | 94° |
| 2026-05-01 10:13 | 47.42088 | 21.31990 | 37391 ft | 423 kts | 95° |
| 2026-05-01 10:14 | 47.40480 | 21.44831 | 37370 ft | 425 kts | 95° |
| 2026-05-01 10:14 | 47.39401 | 21.53411 | 37373 ft | 425 kts | 95° |
| 2026-05-01 10:15 | 47.38856 | 21.57719 | 37125 ft | 428 kts | 95° |
| 2026-05-01 10:15 | 47.38307 | 21.62035 | 36610 ft | 426 kts | 95° |
| 2026-05-01 10:15 | 47.37758 | 21.66311 | 36093 ft | 423 kts | 94° |
| 2026-05-01 10:15 | 47.37213 | 21.70556 | 35622 ft | 420 kts | 94° |
| 2026-05-01 10:16 | 47.36672 | 21.74771 | 35143 ft | 416 kts | 94° |
| 2026-05-01 10:16 | 47.36137 | 21.78953 | 34669 ft | 413 kts | 94° |
| 2026-05-01 10:16 | 47.35082 | 21.87145 | 33632 ft | 406 kts | 93° |
| 2026-05-01 10:17 | 47.34432 | 21.91209 | 33081 ft | 410 kts | 99° |
| 2026-05-01 10:17 | 47.31989 | 21.98940 | 32032 ft | 417 kts | 109° |
| 2026-05-01 10:17 | 47.30605 | 22.02669 | 31525 ft | 413 kts | 108° |
| 2026-05-01 10:18 | 47.27878 | 22.10001 | 30561 ft | 402 kts | 107° |
| 2026-05-01 10:18 | 47.26543 | 22.13597 | 30003 ft | 397 kts | 107° |
| 2026-05-01 10:18 | 47.25226 | 22.17155 | 29423 ft | 393 kts | 107° |
| 2026-05-01 10:19 | 47.23924 | 22.20675 | 28866 ft | 390 kts | 107° |
| 2026-05-01 10:19 | 47.22625 | 22.24176 | 28304 ft | 388 kts | 108° |
| 2026-05-01 10:19 | 47.21333 | 22.27647 | 27765 ft | 386 kts | 108° |
| 2026-05-01 10:20 | 47.18763 | 22.34539 | 26712 ft | 383 kts | 108° |
| 2026-05-01 10:20 | 47.17485 | 22.37966 | 26195 ft | 381 kts | 109° |
| 2026-05-01 10:20 | 47.16213 | 22.41374 | 25729 ft | 380 kts | 109° |
| 2026-05-01 10:20 | 47.14938 | 22.44782 | 25233 ft | 381 kts | 110° |
| 2026-05-01 10:21 | 47.13677 | 22.48149 | 24749 ft | 381 kts | 110° |
| 2026-05-01 10:21 | 47.11121 | 22.54949 | 23763 ft | 379 kts | 111° |
| 2026-05-01 10:21 | 47.09850 | 22.58324 | 23212 ft | 377 kts | 111° |
| 2026-05-01 10:22 | 47.07308 | 22.65034 | 22105 ft | 374 kts | 111° |
| 2026-05-01 10:22 | 47.04798 | 22.71658 | 21043 ft | 369 kts | 112° |
| 2026-05-01 10:23 | 47.03551 | 22.74941 | 20540 ft | 367 kts | 113° |
| 2026-05-01 10:23 | 47.01081 | 22.81442 | 19535 ft | 364 kts | 113° |
| 2026-05-01 10:23 | 46.99883 | 22.84691 | 19043 ft | 359 kts | 109° |
| 2026-05-01 10:24 | 46.98332 | 22.91508 | 18002 ft | 350 kts | 101° |
| 2026-05-01 10:24 | 46.96943 | 22.98261 | 16928 ft | 346 kts | 102° |
| 2026-05-01 10:25 | 46.95555 | 23.04957 | 15879 ft | 341 kts | 102° |
| 2026-05-01 10:25 | 46.94186 | 23.11569 | 14888 ft | 336 kts | 102° |
| 2026-05-01 10:26 | 46.93508 | 23.14836 | 14402 ft | 335 kts | 103° |
| 2026-05-01 10:26 | 46.92832 | 23.18080 | 13886 ft | 333 kts | 103° |
| 2026-05-01 10:26 | 46.91488 | 23.24518 | 12798 ft | 329 kts | 103° |
| 2026-05-01 10:27 | 46.90155 | 23.30869 | 11734 ft | 320 kts | 103° |
| 2026-05-01 10:27 | 46.88900 | 23.36832 | 10726 ft | 296 kts | 103° |
| 2026-05-01 10:28 | 46.88303 | 23.39663 | 10236 ft | 287 kts | 103° |
| 2026-05-01 10:28 | 46.87155 | 23.45103 | 9160 ft | 274 kts | 104° |
| 2026-05-01 10:28 | 46.86598 | 23.47746 | 8778 ft | 272 kts | 104° |
| 2026-05-01 10:29 | 46.86124 | 23.53177 | 8161 ft | 267 kts | 83° |
| 2026-05-01 10:29 | 46.86429 | 23.55836 | 7848 ft | 265 kts | 73° |
| 2026-05-01 10:30 | 46.87570 | 23.60919 | 7237 ft | 265 kts | 70° |
| 2026-05-01 10:30 | 46.88720 | 23.66031 | 6633 ft | 264 kts | 70° |
| 2026-05-01 10:31 | 46.89863 | 23.71125 | 5989 ft | 262 kts | 70° |
| 2026-05-01 10:31 | 46.90998 | 23.76168 | 5362 ft | 259 kts | 71° |
| 2026-05-01 10:32 | 46.92066 | 23.80968 | 4718 ft | 237 kts | 71° |
| 2026-05-01 10:32 | 46.92563 | 23.83223 | 4410 ft | 230 kts | 73° |
| 2026-05-01 10:32 | 46.92126 | 23.87624 | 3773 ft | 221 kts | 121° |
| 2026-05-01 10:33 | 46.89740 | 23.90069 | 3344 ft | 204 kts | 162° |
| 2026-05-01 10:33 | 46.87117 | 23.91193 | 3270 ft | 187 kts | 174° |
| 2026-05-01 10:34 | 46.85857 | 23.91115 | 3209 ft | 176 kts | 193° |
| 2026-05-01 10:34 | 46.84778 | 23.90526 | 3163 ft | 159 kts | 210° |
| 2026-05-01 10:34 | 46.83934 | 23.89600 | 3102 ft | 149 kts | 225° |
| 2026-05-01 10:35 | 46.82924 | 23.87081 | 3009 ft | 143 kts | 256° |
| 2026-05-01 10:35 | 46.82616 | 23.85705 | 3017 ft | 142 kts | 254° |
| 2026-05-01 10:35 | 46.82310 | 23.84331 | 3011 ft | 143 kts | 255° |
| 2026-05-01 10:35 | 46.82000 | 23.82942 | 2927 ft | 144 kts | 256° |
| 2026-05-01 10:36 | 46.81379 | 23.80169 | 2581 ft | 143 kts | 255° |
| 2026-05-01 10:36 | 46.81070 | 23.78788 | 2406 ft | 143 kts | 255° |
| 2026-05-01 10:36 | 46.80760 | 23.77415 | 2195 ft | 141 kts | 253° |
| 2026-05-01 10:37 | 46.80461 | 23.76045 | 2009 ft | 141 kts | 255° |
| 2026-05-01 10:37 | 46.79843 | 23.73315 | 1605 ft | 141 kts | 256° |
| 2026-05-01 10:37 | 46.79540 | 23.71960 | 1427 ft | 140 kts | 252° |
| 2026-05-01 10:38 | 46.79238 | 23.70607 | 1223 ft | 141 kts | 254° |
| 2026-05-01 10:38 | 46.78939 | 23.69262 | 1049 ft | 136 kts | 254° |
| 2026-05-01 10:38 | 46.78714 | 23.68261 | 1041 ft | 60 kts | 251° |
| 2026-05-01 10:38 | 46.78637 | 23.67919 | 1045 ft | 31 kts | 252° |
| 2026-05-01 10:39 | 46.78569 | 23.67614 | 1043 ft | 33 kts | 251° |
| 2026-05-01 10:39 | 46.78507 | 23.67337 | 1043 ft | 24 kts | 251° |
| 2026-05-01 10:39 | 46.78436 | 23.67189 | 1045 ft | 18 kts | 188° |
| 2026-05-01 10:39 | 46.78347 | 23.67285 | 1042 ft | 15 kts | 116° |
| 2026-05-01 10:40 | 46.78342 | 23.67352 | 1042 ft | 0 kts | 80° |
| 2026-05-01 10:40 | 46.78343 | 23.67358 | 1042 ft | 1 kts | 80° |
| 2026-05-01 10:40 | 46.78344 | 23.67368 | 1042 ft | 0 kts | 80° |
| 2026-05-01 10:40 | 46.78344 | 23.67370 | 1042 ft | 1 kts | 80° |
| 2026-05-01 10:41 | 46.78345 | 23.67381 | 1042 ft | 0 kts | 80° |
| 2026-05-01 10:41 | 46.78347 | 23.67390 | 1042 ft | 2 kts | 80° |
| 2026-05-01 10:41 | 46.78359 | 23.67487 | 1042 ft | 8 kts | 78° |
| 2026-05-01 10:42 | 46.78380 | 23.67593 | 1040 ft | 13 kts | 71° |
| 2026-05-01 10:42 | 46.78414 | 23.67743 | 1038 ft | 17 kts | 72° |
| 2026-05-01 10:42 | 46.78454 | 23.67921 | 1039 ft | 20 kts | 72° |
| 2026-05-01 10:42 | 46.78499 | 23.68122 | 1042 ft | 21 kts | 71° |
| 2026-05-01 10:43 | 46.78533 | 23.68271 | 1043 ft | 16 kts | 72° |
| 2026-05-01 10:43 | 46.78572 | 23.68445 | 1040 ft | 20 kts | 72° |
| 2026-05-01 10:43 | 46.78603 | 23.68580 | 1041 ft | 22 kts | 71° |
| 2026-05-01 10:43 | 46.78655 | 23.68811 | 1039 ft | 25 kts | 72° |
| 2026-05-01 10:44 | 46.78711 | 23.69058 | 1041 ft | 19 kts | 72° |
| 2026-05-01 10:44 | 46.78740 | 23.69190 | 1040 ft | 10 kts | 73° |
| 2026-05-01 10:44 | 46.78695 | 23.69267 | 1039 ft | 8 kts | 162° |
| 2026-05-01 10:44 | 46.78632 | 23.69296 | 1038 ft | 11 kts | 162° |
| 2026-05-01 10:45 | 46.78567 | 23.69327 | 1036 ft | 9 kts | 161° |
| 2026-05-01 10:45 | 46.78520 | 23.69376 | 1034 ft | 9 kts | 83° |
| 2026-05-01 10:45 | 46.78529 | 23.69412 | 1034 ft | 2 kts | 71° |
| 2026-05-01 10:45 | 46.78533 | 23.69427 | 1034 ft | 1 kts | 71° |
| 2026-05-01 10:46 | 46.78533 | 23.69428 | 1034 ft | 0 kts | 71° |
| 2026-05-01 10:48 | 46.78534 | 23.69433 | 1034 ft | 0 kts | 71° |